Terminal Aerodrome Forecast
Issued by NWS Sterling, VA

Current Version | Previous Version | Graphics & Text | Print | Product List | Glossary On
Versions: 1 2 3 4 5 6 7 8 9 10 11 12 13 14 15 16 17 18 19 20 21 22 23 24 25 26 27 28 29 30
000
FTUS41 KLWX 080500
TAFIAD
TAF
KIAD 080520Z 0806/0912 22006KT P6SM BKN120
     FM081500 23010KT P6SM SCT060
     FM081700 22012KT P6SM BKN050
     FM090300 24008KT P6SM BKN060
     FM090800 23004KT P6SM BKN110=

USA.gov is the U.S. government's official web portal to all federal, state and local government web resources and services.